Time;durP1;ratioP1;P1;durP2;ratioP2;P2;SDS_P1;SDS_P2;PMS_P1;PMS_P2;Temp;Humidity;BMP_temperature;BMP_pressure;BME280_temperature;BME280_humidity;BME280_pressure;Samples;Min_cycle;Max_cycle;Signal;HPM_P1;HPM_P2
2023/04/24 00:01:40;;;;;;;13.77;7.50;;;7.40;99.90;;;;;;5023432;28;20182;-68
2023/04/24 00:04:06;;;;;;;12.97;7.33;;;7.60;99.90;;;;;;5004679;28;20549;-68
2023/04/24 00:06:33;;;;;;;15.63;7.80;;;7.60;99.90;;;;;;5024000;28;20189;-68
2023/04/24 00:09:03;;;;;;;14.20;7.43;;;7.60;99.90;;;;;;5022183;28;20234;-68
2023/04/24 00:11:29;;;;;;;13.23;7.20;;;7.60;99.90;;;;;;5023468;28;20186;-68
2023/04/24 00:13:56;;;;;;;15.23;7.90;;;7.60;99.90;;;;;;5023371;28;20185;-67
2023/04/24 00:16:22;;;;;;;11.77;7.13;;;7.60;99.90;;;;;;5007031;28;20188;-68
2023/04/24 00:18:48;;;;;;;10.30;6.83;;;7.50;99.90;;;;;;5019462;28;20174;-68
2023/04/24 00:21:15;;;;;;;15.37;7.60;;;7.50;99.90;;;;;;5025516;28;20614;-67
2023/04/24 00:23:41;;;;;;;12.40;7.40;;;;;;;;;;5021903;28;20205;-67
2023/04/24 00:26:07;;;;;;;16.30;6.83;;;7.70;99.90;;;;;;5006343;28;20668;-67
2023/04/24 00:28:33;;;;;;;12.17;7.03;;;7.60;99.90;;;;;;5021913;28;20225;-66
2023/04/24 00:30:59;;;;;;;14.30;6.70;;;7.70;99.90;;;;;;5023417;28;20571;-68
2023/04/24 00:33:24;;;;;;;10.67;6.33;;;7.70;99.90;;;;;;5023957;28;20182;-67
2023/04/24 00:35:50;;;;;;;12.23;6.57;;;7.60;99.90;;;;;;5022294;28;20185;-68
2023/04/24 00:38:15;;;;;;;16.20;6.73;;;7.40;99.90;;;;;;5024295;28;20189;-68
2023/04/24 00:40:41;;;;;;;11.17;6.87;;;7.60;99.90;;;;;;5021687;28;20175;-67
2023/04/24 00:43:07;;;;;;;9.70;5.83;;;7.80;99.90;;;;;;5027505;28;20178;-68
2023/04/24 00:45:32;;;;;;;11.17;6.00;;;7.50;99.90;;;;;;5023593;28;20661;-68
2023/04/24 00:47:59;;;;;;;8.33;5.80;;;7.50;99.90;;;;;;5023539;28;20209;-68
2023/04/24 00:50:26;;;;;;;12.00;6.00;;;7.50;99.90;;;;;;5025080;28;20183;-68
2023/04/24 00:52:52;;;;;;;10.70;5.70;;;;;;;;;;5027238;28;20189;-68
2023/04/24 00:55:18;;;;;;;9.50;5.90;;;7.50;99.90;;;;;;5026227;28;20225;-68
2023/04/24 00:57:44;;;;;;;9.00;5.57;;;7.50;99.90;;;;;;5026298;28;20816;-68
2023/04/24 01:00:11;;;;;;;9.90;5.43;;;7.50;99.90;;;;;;5027196;28;20190;-68
2023/04/24 01:02:46;;;;;;;8.37;5.77;;;7.50;99.90;;;;;;5025839;28;20186;-68
2023/04/24 01:05:13;;;;;;;10.30;5.53;;;7.60;99.90;;;;;;5026220;28;20169;-68
2023/04/24 01:07:40;;;;;;;13.20;6.00;;;7.60;99.90;;;;;;5025703;28;20312;-67
2023/04/24 01:10:07;;;;;;;9.93;5.60;;;7.60;99.90;;;;;;5028019;28;20252;-68
2023/04/24 01:12:33;;;;;;;8.67;5.07;;;7.60;99.90;;;;;;5025601;28;20202;-67
2023/04/24 01:14:59;;;;;;;7.47;5.07;;;7.70;99.90;;;;;;5027882;28;20714;-67
2023/04/24 01:17:25;;;;;;;8.97;4.47;;;7.80;99.90;;;;;;5024937;28;20225;-68
2023/04/24 01:19:53;;;;;;;10.50;5.20;;;7.90;99.90;;;;;;5028485;28;20584;-67
2023/04/24 01:22:20;;;;;;;12.17;5.20;;;7.90;99.90;;;;;;5023091;28;20187;-67
2023/04/24 01:24:46;;;;;;;9.20;4.90;;;8.00;99.90;;;;;;5028007;28;20657;-67
2023/04/24 01:27:12;;;;;;;9.47;4.57;;;8.00;99.90;;;;;;5024298;28;20181;-68
2023/04/24 01:29:38;;;;;;;9.17;4.80;;;7.90;99.90;;;;;;5027856;28;20264;-67
2023/04/24 01:32:05;;;;;;;8.90;4.50;;;7.90;99.90;;;;;;5025086;28;20269;-68
2023/04/24 01:34:31;;;;;;;7.93;4.47;;;;;;;;;;5025660;28;20200;-67
2023/04/24 01:36:57;;;;;;;9.57;4.63;;;7.80;99.90;;;;;;5022473;28;20178;-68
2023/04/24 01:39:28;;;;;;;7.60;4.53;;;7.80;99.90;;;;;;5028447;28;20676;-68
2023/04/24 01:41:54;;;;;;;11.03;5.00;;;7.80;99.90;;;;;;5026567;28;20194;-67
2023/04/24 01:44:20;;;;;;;12.43;5.00;;;7.70;99.90;;;;;;5025268;28;20220;-67
2023/04/24 01:46:46;;;;;;;9.97;5.23;;;7.60;99.90;;;;;;5026779;28;20174;-67
2023/04/24 01:49:12;;;;;;;8.93;5.43;;;7.60;99.90;;;;;;5023677;28;20743;-67
2023/04/24 01:51:37;;;;;;;17.10;5.70;;;7.40;99.90;;;;;;5027669;28;20691;-67
2023/04/24 01:54:03;;;;;;;10.10;5.70;;;7.60;99.90;;;;;;5021946;28;20721;-68
2023/04/24 01:56:30;;;;;;;11.53;6.10;;;7.60;99.90;;;;;;5027590;28;20185;-68
2023/04/24 01:58:57;;;;;;;17.10;6.03;;;7.70;99.90;;;;;;5022749;28;20177;-68
2023/04/24 02:01:24;;;;;;;8.93;5.77;;;7.70;99.90;;;;;;5009126;28;20181;-68
2023/04/24 02:03:50;;;;;;;14.00;6.80;;;7.90;99.90;;;;;;5025283;28;20182;-68
2023/04/24 02:06:15;;;;;;;14.37;6.63;;;7.60;99.90;;;;;;5026106;28;20177;-68
2023/04/24 02:08:41;;;;;;;9.47;6.23;;;7.50;99.90;;;;;;5026282;28;20226;-68
2023/04/24 02:11:09;;;;;;;14.20;6.40;;;7.50;99.90;;;;;;5024745;28;20181;-68
2023/04/24 02:13:34;;;;;;;8.93;5.80;;;7.40;99.90;;;;;;5025691;28;20178;-68
2023/04/24 02:16:00;;;;;;;13.40;6.30;;;7.40;99.90;;;;;;5023024;28;20177;-67
2023/04/24 02:18:25;;;;;;;10.20;5.60;;;7.40;99.90;;;;;;5026610;28;20170;-66
2023/04/24 02:20:51;;;;;;;15.10;6.77;;;7.40;99.90;;;;;;5025066;28;20193;-67
2023/04/24 02:23:17;;;;;;;13.23;6.47;;;7.40;99.90;;;;;;5027260;28;20180;-67
2023/04/24 02:25:42;;;;;;;10.77;6.00;;;7.30;99.90;;;;;;5022640;28;20193;-67
2023/04/24 02:28:08;;;;;;;16.23;6.90;;;7.30;99.90;;;;;;5026135;28;20255;-67
2023/04/24 02:30:34;;;;;;;11.93;6.93;;;7.20;99.90;;;;;;5006411;28;20232;-65
2023/04/24 02:32:59;;;;;;;16.23;7.83;;;7.30;99.90;;;;;;5025272;28;20650;-67
2023/04/24 02:35:25;;;;;;;11.17;7.00;;;7.30;99.90;;;;;;5024511;28;20182;-66
2023/04/24 02:37:50;;;;;;;11.03;6.70;;;7.40;99.90;;;;;;5023367;28;20174;-67
2023/04/24 02:40:16;;;;;;;18.17;7.63;;;7.40;99.90;;;;;;5025305;28;20194;-67
2023/04/24 02:42:42;;;;;;;13.70;6.77;;;7.30;99.90;;;;;;5022836;28;20186;-67
2023/04/24 02:45:08;;;;;;;13.60;7.30;;;7.60;99.90;;;;;;5027094;28;20205;-67
2023/04/24 02:47:33;;;;;;;10.87;6.60;;;7.30;99.90;;;;;;5025240;28;20199;-67
2023/04/24 02:49:59;;;;;;;12.23;7.00;;;;;;;;;;5026676;28;20186;-67
2023/04/24 02:52:25;;;;;;;14.80;7.37;;;7.30;99.90;;;;;;5022013;28;20244;-67
2023/04/24 02:54:50;;;;;;;13.10;6.50;;;7.20;99.90;;;;;;5025742;28;20190;-67
2023/04/24 02:57:16;;;;;;;14.90;7.27;;;7.00;99.90;;;;;;5023675;28;21422;-67
2023/04/24 02:59:41;;;;;;;12.57;7.03;;;7.30;99.90;;;;;;5024123;28;20247;-67
2023/04/24 03:02:07;;;;;;;14.50;7.30;;;7.40;99.90;;;;;;5025435;28;20181;-67
2023/04/24 03:04:33;;;;;;;14.83;7.70;;;7.40;99.90;;;;;;5022113;28;20201;-70
2023/04/24 03:06:58;;;;;;;13.40;7.50;;;7.50;99.90;;;;;;5024865;28;20170;-69
2023/04/24 03:09:24;;;;;;;14.03;7.70;;;7.60;99.90;;;;;;5022437;28;20633;-69
2023/04/24 03:11:50;;;;;;;10.60;6.73;;;7.70;99.90;;;;;;5026845;28;20186;-69
2023/04/24 03:14:16;;;;;;;15.10;7.03;;;7.70;99.90;;;;;;5021787;28;20294;-69
2023/04/24 03:16:42;;;;;;;12.43;6.90;;;;;;;;;;5026756;28;20185;-70
2023/04/24 03:19:07;;;;;;;13.47;6.83;;;7.80;99.90;;;;;;5022822;28;20549;-69
2023/04/24 03:21:35;;;;;;;14.97;7.17;;;7.60;99.90;;;;;;5023773;28;20180;-70
2023/04/24 03:24:01;;;;;;;12.23;7.23;;;7.90;99.90;;;;;;5021966;28;20186;-70
2023/04/24 03:26:26;;;;;;;12.20;7.10;;;7.90;99.90;;;;;;5022638;28;20204;-69
2023/04/24 03:28:52;;;;;;;12.40;7.47;;;8.00;99.90;;;;;;5023160;28;20577;-69
2023/04/24 03:31:18;;;;;;;16.13;7.77;;;8.00;99.90;;;;;;5021062;28;20177;-69
2023/04/24 03:33:44;;;;;;;14.57;7.70;;;6.60;99.90;;;;;;5023534;28;20209;-69
2023/04/24 03:36:10;;;;;;;15.50;7.50;;;8.10;99.90;;;;;;5021214;28;20213;-69
2023/04/24 03:38:35;;;;;;;12.97;7.20;;;8.10;99.90;;;;;;5025499;28;20174;-70
2023/04/24 03:41:01;;;;;;;14.23;6.90;;;8.20;99.90;;;;;;5020352;28;20187;-70
2023/04/24 03:43:27;;;;;;;13.57;7.13;;;8.00;99.90;;;;;;5024336;28;20667;-70
2023/04/24 03:45:53;;;;;;;14.13;6.90;;;8.00;99.90;;;;;;5020941;28;20174;-69
2023/04/24 03:48:18;;;;;;;14.57;7.40;;;8.00;99.90;;;;;;5026681;28;20347;-69
2023/04/24 03:50:44;;;;;;;17.17;7.30;;;8.00;99.90;;;;;;5021527;28;20673;-69
2023/04/24 03:53:09;;;;;;;14.63;7.23;;;8.00;99.90;;;;;;5024084;28;20272;-69
2023/04/24 03:55:35;;;;;;;11.47;7.27;;;;;;;;;;5024381;28;20706;-67
2023/04/24 03:58:01;;;;;;;15.40;7.80;;;;;;;;;;5021960;28;20652;-69
2023/04/24 04:00:27;;;;;;;13.97;7.30;;;;;;;;;;5024051;28;20288;-70
2023/04/24 04:02:53;;;;;;;13.47;7.23;;;7.90;99.90;;;;;;5021919;28;20579;-68
2023/04/24 04:05:19;;;;;;;23.37;7.83;;;7.70;99.90;;;;;;5024870;28;20249;-68
2023/04/24 04:07:44;;;;;;;14.50;7.40;;;7.90;99.90;;;;;;5002607;28;20268;-68
2023/04/24 04:10:10;;;;;;;14.67;7.03;;;8.30;99.90;;;;;;5025557;28;20187;-68
2023/04/24 04:12:36;;;;;;;13.57;6.87;;;8.10;99.90;;;;;;5022152;28;20190;-68
2023/04/24 04:15:02;;;;;;;11.80;7.00;;;7.80;99.90;;;;;;5024471;28;20181;-67
2023/04/24 04:17:27;;;;;;;11.73;6.90;;;7.80;99.90;;;;;;5025181;28;20209;-67
2023/04/24 04:19:53;;;;;;;17.00;6.80;;;7.70;99.90;;;;;;5026763;28;20641;-67
2023/04/24 04:22:18;;;;;;;13.27;6.87;;;7.70;99.90;;;;;;5027569;28;20178;-67
2023/04/24 04:24:46;;;;;;;15.83;7.30;;;7.70;99.90;;;;;;5025379;28;20220;-67
2023/04/24 04:27:12;;;;;;;14.17;7.03;;;7.60;99.90;;;;;;5027738;28;20250;-67
2023/04/24 04:29:38;;;;;;;13.23;6.97;;;7.60;99.90;;;;;;5027883;28;20237;-67
2023/04/24 04:32:04;;;;;;;15.60;6.67;;;7.50;99.90;;;;;;5028682;28;20268;-68
2023/04/24 04:34:29;;;;;;;10.50;6.90;;;7.40;99.90;;;;;;5005964;28;20273;-67
2023/04/24 04:36:55;;;;;;;11.73;6.43;;;7.40;99.90;;;;;;5028368;28;20249;-67
2023/04/24 04:39:21;;;;;;;10.73;6.23;;;7.30;99.90;;;;;;5024978;28;20177;-66
2023/04/24 04:41:48;;;;;;;12.70;6.57;;;7.20;99.90;;;;;;5027687;28;20182;-67
2023/04/24 04:44:14;;;;;;;11.43;6.23;;;7.20;99.90;;;;;;5027150;28;20201;-67
2023/04/24 04:46:41;;;;;;;15.63;7.03;;;7.20;99.90;;;;;;5025611;28;20181;-67
2023/04/24 04:49:08;;;;;;;16.50;7.03;;;;;;;;;;5028054;28;20253;-67
2023/04/24 04:51:34;;;;;;;12.10;7.03;;;7.20;99.90;;;;;;5024976;28;20174;-68
2023/04/24 04:54:00;;;;;;;12.90;7.00;;;7.10;99.90;;;;;;5024979;28;20211;-67
2023/04/24 04:56:26;;;;;;;12.10;6.53;;;7.10;99.90;;;;;;5025239;28;20178;-67
2023/04/24 04:58:51;;;;;;;11.87;7.13;;;7.10;99.90;;;;;;5028302;28;20679;-67
2023/04/24 05:01:17;;;;;;;17.27;7.03;;;7.10;99.90;;;;;;5024363;28;20649;-68
2023/04/24 05:03:43;;;;;;;14.77;7.13;;;7.00;99.90;;;;;;5010780;28;20186;-67
2023/04/24 05:06:08;;;;;;;12.87;7.67;;;7.10;99.90;;;;;;5024835;28;20185;-67
2023/04/24 05:08:34;;;;;;;11.43;7.10;;;;;;;;;;5027644;28;20712;-67
2023/04/24 05:11:00;;;;;;;11.63;7.40;;;7.00;99.90;;;;;;5025958;28;20182;-67
2023/04/24 05:13:26;;;;;;;21.73;7.73;;;7.30;99.90;;;;;;5025900;28;20182;-67
2023/04/24 05:15:52;;;;;;;13.53;7.33;;;7.10;99.90;;;;;;5027438;28;20209;-68
2023/04/24 05:18:18;;;;;;;13.87;7.13;;;7.10;99.90;;;;;;5024017;28;20633;-67
2023/04/24 05:20:43;;;;;;;15.13;7.20;;;7.10;99.90;;;;;;5028423;28;20186;-67
2023/04/24 05:23:09;;;;;;;15.37;7.30;;;7.20;99.90;;;;;;5022996;28;20194;-67
2023/04/24 05:25:35;;;;;;;14.70;7.53;;;7.20;99.90;;;;;;5028323;28;20239;-67
2023/04/24 05:28:02;;;;;;;14.63;6.60;;;7.30;99.90;;;;;;5022919;28;20202;-67
2023/04/24 05:30:27;;;;;;;9.97;6.33;;;7.10;99.90;;;;;;5001677;28;20190;-67
2023/04/24 05:32:53;;;;;;;13.60;7.20;;;;;;;;;;5024338;28;20610;-68
2023/04/24 05:35:19;;;;;;;17.13;6.77;;;7.20;99.90;;;;;;5027305;28;20704;-68
2023/04/24 05:37:45;;;;;;;15.53;6.73;;;7.50;99.90;;;;;;5026517;28;20190;-67
2023/04/24 05:40:11;;;;;;;13.07;6.53;;;7.10;99.90;;;;;;5025546;28;20552;-68
2023/04/24 05:42:37;;;;;;;16.37;7.10;;;7.50;99.90;;;;;;5027138;28;20239;-69
2023/04/24 05:45:03;;;;;;;14.60;7.37;;;7.60;99.90;;;;;;5024570;28;20644;-68
2023/04/24 05:47:29;;;;;;;13.10;7.67;;;;;;;;;;5027945;28;20193;-66
2023/04/24 05:49:55;;;;;;;13.30;7.10;;;7.80;99.90;;;;;;5023559;28;20264;-66
2023/04/24 05:52:21;;;;;;;15.90;7.43;;;7.90;99.90;;;;;;5028039;28;20511;-67
2023/04/24 05:54:46;;;;;;;12.60;7.07;;;8.00;99.90;;;;;;5023433;28;20181;-66
2023/04/24 05:57:12;;;;;;;15.47;8.63;;;8.10;99.90;;;;;;5027487;28;20256;-66
2023/04/24 05:59:38;;;;;;;15.33;8.17;;;10.30;99.90;;;;;;5024736;28;20260;-69
2023/04/24 06:02:04;;;;;;;16.00;8.53;;;8.30;99.90;;;;;;5026151;28;20269;-68
2023/04/24 06:04:29;;;;;;;13.77;8.90;;;8.30;99.90;;;;;;5026133;28;20632;-68
2023/04/24 06:06:55;;;;;;;16.33;9.40;;;8.40;99.90;;;;;;5023925;28;20185;-66
2023/04/24 06:09:25;;;;;;;17.83;9.57;;;8.50;99.90;;;;;;5026304;28;20222;-69
2023/04/24 06:11:52;;;;;;;15.77;8.70;;;8.70;99.90;;;;;;5024018;28;20693;-68
2023/04/24 06:14:18;;;;;;;15.30;9.03;;;8.60;99.90;;;;;;5026072;28;20247;-66
2023/04/24 06:16:44;;;;;;;19.60;9.43;;;8.60;99.90;;;;;;5023436;28;20190;-66
2023/04/24 06:19:10;;;;;;;17.70;9.30;;;8.70;99.90;;;;;;5026802;28;20193;-67
2023/04/24 06:21:36;;;;;;;17.47;9.87;;;8.80;99.90;;;;;;5022491;28;20174;-66
2023/04/24 06:24:02;;;;;;;16.23;9.63;;;8.80;99.90;;;;;;5029733;28;20178;-69
2023/04/24 06:26:27;;;;;;;12.43;8.73;;;8.90;99.90;;;;;;5005270;28;20182;-67
2023/04/24 06:28:58;;;;;;;12.03;8.33;;;8.90;99.90;;;;;;5025753;28;20221;-67
2023/04/24 06:31:23;;;;;;;12.87;8.57;;;9.60;99.90;;;;;;5022723;28;20186;-67
2023/04/24 06:33:49;;;;;;;17.23;9.30;;;;;;;;;;5025980;28;20591;-67
2023/04/24 06:36:15;;;;;;;17.70;9.00;;;9.20;99.90;;;;;;5025258;28;20189;-67
2023/04/24 06:38:41;;;;;;;20.83;9.43;;;9.30;99.90;;;;;;5025129;28;20178;-69
2023/04/24 06:41:07;;;;;;;22.90;11.60;;;9.30;99.90;;;;;;5006812;28;20182;-67
2023/04/24 06:43:33;;;;;;;20.80;11.23;;;9.30;99.90;;;;;;5022468;28;20201;-69
2023/04/24 06:46:00;;;;;;;14.30;9.20;;;9.30;99.90;;;;;;5024865;28;20197;-69
2023/04/24 06:48:25;;;;;;;17.03;9.43;;;9.40;99.90;;;;;;5022088;28;20682;-69
2023/04/24 06:50:51;;;;;;;15.70;8.73;;;9.40;99.90;;;;;;5026099;28;20217;-69
2023/04/24 06:53:17;;;;;;;16.30;9.33;;;9.50;99.90;;;;;;5024366;28;20187;-70
2023/04/24 06:55:44;;;;;;;14.53;9.47;;;9.50;99.90;;;;;;5026094;28;20182;-69
2023/04/24 06:58:10;;;;;;;15.10;9.37;;;9.50;99.90;;;;;;5021336;28;20188;-69
2023/04/24 07:00:36;;;;;;;22.60;10.60;;;9.60;99.90;;;;;;5025111;28;20186;-69
2023/04/24 07:03:02;;;;;;;18.27;8.87;;;9.80;99.90;;;;;;5023271;28;20193;-70
2023/04/24 07:05:29;;;;;;;13.90;9.20;;;;;;;;;;5024185;28;20178;-70
2023/04/24 07:07:58;;;;;;;16.93;8.97;;;;;;;;;;5023985;28;20214;-69
2023/04/24 07:10:24;;;;;;;14.73;9.03;;;9.90;99.90;;;;;;5023481;28;20661;-69
2023/04/24 07:12:50;;;;;;;19.30;9.60;;;10.00;99.90;;;;;;5025316;28;20170;-69
2023/04/24 07:15:16;;;;;;;22.87;9.60;;;10.00;99.90;;;;;;5022895;28;20178;-68
2023/04/24 07:17:45;;;;;;;18.37;9.67;;;;;;;;;;5025233;28;20178;-69
2023/04/24 07:20:12;;;;;;;20.73;9.27;;;10.10;99.90;;;;;;5025743;28;20248;-68
2023/04/24 07:22:38;;;;;;;17.63;9.57;;;10.20;99.90;;;;;;5026476;28;20200;-68
2023/04/24 07:25:04;;;;;;;16.07;9.20;;;10.20;99.90;;;;;;5024614;28;20526;-69
2023/04/24 07:27:30;;;;;;;19.07;9.40;;;10.30;99.90;;;;;;5025821;28;20190;-69
2023/04/24 07:29:56;;;;;;;13.57;8.57;;;10.30;99.90;;;;;;5021449;28;20719;-70
2023/04/24 07:32:21;;;;;;;13.70;8.70;;;10.30;99.90;;;;;;5024638;28;20181;-70
2023/04/24 07:34:47;;;;;;;15.07;9.13;;;10.40;99.90;;;;;;5023407;28;20185;-69
2023/04/24 07:37:13;;;;;;;13.63;8.40;;;10.60;99.90;;;;;;5023915;28;20536;-69
2023/04/24 07:39:38;;;;;;;17.27;9.43;;;10.90;99.90;;;;;;5024392;28;20220;-69
2023/04/24 07:42:04;;;;;;;16.10;9.47;;;11.00;99.90;;;;;;5025821;28;20316;-72
2023/04/24 07:44:29;;;;;;;18.37;9.43;;;11.20;99.90;;;;;;5006981;28;20200;-71
2023/04/24 07:46:56;;;;;;;16.07;9.23;;;11.50;99.90;;;;;;5017175;28;20645;-72
2023/04/24 07:49:21;;;;;;;14.57;8.90;;;11.70;99.90;;;;;;5024927;28;20213;-72
2023/04/24 07:51:47;;;;;;;20.70;9.73;;;11.70;99.90;;;;;;5020774;28;20174;-72
2023/04/24 07:54:13;;;;;;;18.53;9.07;;;11.80;99.90;;;;;;5025622;28;20522;-72
2023/04/24 07:56:38;;;;;;;15.10;9.13;;;12.20;99.90;;;;;;5021103;28;20637;-71
2023/04/24 07:59:05;;;;;;;14.97;8.90;;;11.80;99.90;;;;;;5024025;28;20174;-71
2023/04/24 08:01:30;;;;;;;18.90;8.87;;;11.80;99.90;;;;;;5022403;28;20192;-72
2023/04/24 08:03:56;;;;;;;15.43;9.00;;;11.40;99.90;;;;;;5023733;28;20644;-72
2023/04/24 08:06:22;;;;;;;18.50;8.87;;;11.30;99.90;;;;;;5024011;28;20227;-71
2023/04/24 08:08:47;;;;;;;18.10;8.63;;;11.00;99.90;;;;;;5021699;28;20708;-70
2023/04/24 08:11:13;;;;;;;17.17;8.90;;;11.00;99.90;;;;;;5007418;28;20563;-71
2023/04/24 08:13:39;;;;;;;16.40;8.40;;;11.10;99.90;;;;;;5021742;28;20261;-71
2023/04/24 08:16:04;;;;;;;12.17;7.60;;;11.10;99.90;;;;;;5025451;28;20710;-70
2023/04/24 08:18:30;;;;;;;11.53;8.00;;;11.10;99.90;;;;;;5020395;28;20270;-72
2023/04/24 08:21:01;;;;;;;15.07;8.17;;;11.20;99.90;;;;;;5025443;28;20652;-71
2023/04/24 08:23:26;;;;;;;13.47;6.57;;;11.20;99.90;;;;;;5021376;28;20194;-71
2023/04/24 08:25:52;;;;;;;11.17;6.53;;;10.80;99.90;;;;;;5022978;28;20541;-70
2023/04/24 08:28:20;;;;;;;15.23;6.70;;;10.40;99.90;;;;;;5021807;28;20217;-70
2023/04/24 08:30:47;;;;;;;15.80;7.70;;;10.30;99.90;;;;;;5023101;28;20190;-70
2023/04/24 08:33:13;;;;;;;11.77;7.40;;;10.10;99.90;;;;;;5022428;28;20170;-70
2023/04/24 08:35:39;;;;;;;17.83;9.23;;;10.10;99.90;;;;;;5022106;28;20183;-70
2023/04/24 08:38:05;;;;;;;20.50;9.47;;;;;;;;;;5021791;28;20276;-70
2023/04/24 08:40:34;;;;;;;14.13;7.77;;;9.80;99.90;;;;;;5020910;28;20545;-71
2023/04/24 08:43:00;;;;;;;11.00;7.40;;;9.80;99.90;;;;;;5024820;28;20217;-71
2023/04/24 08:45:26;;;;;;;17.60;7.40;;;10.80;99.90;;;;;;5024052;28;20203;-71
2023/04/24 08:47:55;;;;;;;14.80;7.93;;;9.80;99.90;;;;;;5024608;28;20217;-71
2023/04/24 08:50:21;;;;;;;13.80;8.40;;;9.80;99.90;;;;;;5018609;28;20187;-70
2023/04/24 08:52:50;;;;;;;13.73;9.00;;;9.80;99.90;;;;;;5024101;28;20181;-71
2023/04/24 08:55:18;;;;;;;14.00;8.57;;;9.90;99.90;;;;;;5019339;28;20167;-71
2023/04/24 08:57:45;;;;;;;13.37;8.17;;;9.90;99.90;;;;;;5019558;28;20185;-71
2023/04/24 09:00:11;;;;;;;15.67;8.80;;;10.00;99.90;;;;;;5003297;28;20285;-71
2023/04/24 09:02:41;;;;;;;12.70;8.57;;;9.90;99.90;;;;;;5024053;28;20177;-71
2023/04/24 09:05:08;;;;;;;15.33;8.40;;;9.90;99.90;;;;;;5024597;28;20174;-71
2023/04/24 09:07:36;;;;;;;15.00;9.57;;;9.90;99.90;;;;;;5009649;28;20182;-71
2023/04/24 09:10:02;;;;;;;19.13;9.67;;;9.90;99.90;;;;;;5025742;28;20249;-70
2023/04/24 09:12:28;;;;;;;15.53;9.40;;;;;;;;;;5025453;28;20311;-70
2023/04/24 09:14:56;;;;;;;12.90;9.23;;;10.00;99.90;;;;;;5027648;28;20206;-70
2023/04/24 09:17:22;;;;;;;15.93;10.23;;;10.00;99.90;;;;;;5025362;28;20179;-70
2023/04/24 09:19:48;;;;;;;12.10;9.03;;;9.70;99.90;;;;;;5028143;28;20178;-70
2023/04/24 09:22:15;;;;;;;17.83;10.70;;;10.10;99.90;;;;;;5023962;28;20653;-70
2023/04/24 09:24:41;;;;;;;17.87;10.27;;;10.30;99.90;;;;;;5028192;28;20602;-70
2023/04/24 09:27:07;;;;;;;16.33;10.50;;;10.20;99.90;;;;;;5023997;28;20266;-70
2023/04/24 09:29:32;;;;;;;15.13;9.63;;;9.90;99.90;;;;;;5028847;28;20217;-70
2023/04/24 09:31:59;;;;;;;22.63;10.33;;;10.00;99.90;;;;;;5024170;28;20679;-70
2023/04/24 09:34:26;;;;;;;18.90;9.67;;;9.70;99.90;;;;;;5025696;28;20186;-70
2023/04/24 09:36:53;;;;;;;14.90;8.30;;;9.60;99.90;;;;;;5023377;28;20272;-71
2023/04/24 09:39:22;;;;;;;15.83;9.77;;;9.20;99.90;;;;;;5025036;28;20182;-70
2023/04/24 09:41:53;;;;;;;15.53;9.53;;;9.30;99.90;;;;;;5026142;28;20193;-70
2023/04/24 09:44:23;;;;;;;14.57;9.97;;;9.30;99.90;;;;;;5025485;28;20189;-70
2023/04/24 09:46:57;;;;;;;18.00;10.67;;;8.90;99.90;;;;;;5026308;28;20173;-69
2023/04/24 09:49:25;;;;;;;18.33;10.37;;;8.80;99.90;;;;;;5026143;28;20214;-69
2023/04/24 09:51:50;;;;;;;17.70;9.97;;;9.10;99.90;;;;;;5025998;28;20633;-70
2023/04/24 09:54:19;;;;;;;15.40;10.50;;;9.00;99.90;;;;;;5025751;28;20188;-69
2023/04/24 09:56:49;;;;;;;16.00;9.53;;;9.10;99.90;;;;;;5025863;28;20180;-70
2023/04/24 09:59:18;;;;;;;19.83;11.00;;;8.90;99.90;;;;;;5024722;28;20190;-70
2023/04/24 10:01:48;;;;;;;17.97;9.77;;;9.20;99.90;;;;;;5027118;28;20186;-70
2023/04/24 10:04:21;;;;;;;16.07;9.63;;;9.40;99.90;;;;;;5024396;28;20202;-70
2023/04/24 10:06:48;;;;;;;15.93;9.70;;;9.30;99.90;;;;;;5027370;28;20216;-70
2023/04/24 10:09:15;;;;;;;14.63;9.97;;;9.40;99.90;;;;;;5023754;28;20233;-70
2023/04/24 10:11:44;;;;;;;14.13;9.63;;;9.40;99.90;;;;;;5027455;28;20277;-70
2023/04/24 10:14:18;;;;;;;14.70;9.30;;;9.50;99.90;;;;;;5027174;28;20680;-70
2023/04/24 10:16:46;;;;;;;12.33;9.40;;;9.90;99.90;;;;;;5026836;28;20181;-70
2023/04/24 10:19:13;;;;;;;13.17;9.50;;;9.90;99.90;;;;;;5023322;28;20658;-69
2023/04/24 10:21:46;;;;;;;13.80;9.30;;;10.10;99.90;;;;;;5027079;28;20210;-70
2023/04/24 10:24:16;;;;;;;13.30;8.93;;;10.50;99.90;;;;;;5027259;28;20756;-70
2023/04/24 10:26:43;;;;;;;12.20;9.00;;;10.40;99.90;;;;;;5026594;28;20219;-70
2023/04/24 10:29:12;;;;;;;15.03;9.20;;;10.40;99.90;;;;;;5023938;28;20206;-70
2023/04/24 10:31:39;;;;;;;13.60;8.40;;;9.90;99.90;;;;;;5027581;28;20177;-70
2023/04/24 10:34:06;;;;;;;11.63;8.77;;;10.10;99.90;;;;;;5026123;28;20214;-70
2023/04/24 10:36:33;;;;;;;11.53;8.77;;;10.10;99.90;;;;;;5027645;28;20204;-70
2023/04/24 10:39:02;;;;;;;11.97;8.83;;;10.00;99.90;;;;;;5020966;28;20634;-70
2023/04/24 10:41:29;;;;;;;14.37;9.07;;;9.90;99.90;;;;;;5020528;28;20170;-70
2023/04/24 10:44:13;;;;;;;11.30;8.37;;;9.70;99.90;;;;;;5023330;28;20200;-70
2023/04/24 10:46:42;;;;;;;14.53;9.47;;;9.60;99.90;;;;;;5022704;28;20181;-70
2023/04/24 10:49:11;;;;;;;14.83;8.80;;;9.50;99.90;;;;;;5021030;28;20309;-69
2023/04/24 10:51:53;;;;;;;14.00;9.13;;;9.30;99.90;;;;;;5026051;28;20170;-71
2023/04/24 10:54:26;;;;;;;13.63;9.60;;;9.80;99.90;;;;;;5017533;28;20182;-69
2023/04/24 10:56:52;;;;;;;19.40;9.10;;;9.60;99.90;;;;;;5008406;28;20189;-69
2023/04/24 10:59:26;;;;;;;13.97;9.50;;;9.60;99.90;;;;;;5005712;28;20595;-70
2023/04/24 11:01:54;;;;;;;13.90;9.03;;;9.70;99.90;;;;;;5022595;28;20181;-69
2023/04/24 11:04:33;;;;;;;14.57;9.57;;;9.90;99.90;;;;;;5025633;28;20183;-69
2023/04/24 11:06:58;;;;;;;14.80;9.37;;;10.00;99.90;;;;;;5024644;28;20201;-70
2023/04/24 11:09:28;;;;;;;11.07;8.27;;;10.10;99.90;;;;;;5022020;28;20705;-70
2023/04/24 11:12:06;;;;;;;14.60;9.13;;;10.00;99.90;;;;;;5025310;28;20178;-70
2023/04/24 11:14:55;;;;;;;12.87;8.23;;;9.90;99.90;;;;;;5023946;28;20169;-69
2023/04/24 11:17:42;;;;;;;13.20;7.33;;;9.70;99.90;;;;;;5024988;28;20192;-70
2023/04/24 11:20:10;;;;;;;10.67;7.43;;;9.70;99.90;;;;;;5023442;28;20320;-70
2023/04/24 11:22:39;;;;;;;10.37;6.77;;;9.60;99.90;;;;;;5024174;28;20217;-70
2023/04/24 11:25:06;;;;;;;10.67;6.83;;;9.90;99.90;;;;;;5025394;28;20648;-70
2023/04/24 11:27:38;;;;;;;8.30;6.33;;;9.80;99.90;;;;;;5020091;28;20179;-70
2023/04/24 11:30:04;;;;;;;11.20;6.60;;;9.90;99.90;;;;;;5020897;28;20209;-69
2023/04/24 11:32:33;;;;;;;9.47;6.80;;;10.10;99.90;;;;;;5021011;28;20268;-70
2023/04/24 11:35:08;;;;;;;10.13;6.30;;;10.10;99.90;;;;;;5020047;28;20668;-69
2023/04/24 11:37:48;;;;;;;7.93;5.77;;;10.40;99.90;;;;;;5021649;28;20268;-69
2023/04/24 11:40:15;;;;;;;7.43;5.50;;;11.70;99.90;;;;;;5026324;28;20185;-69
2023/04/24 11:42:44;;;;;;;7.63;5.50;;;10.80;99.90;;;;;;5022150;28;20190;-70
2023/04/24 11:45:12;;;;;;;6.40;4.87;;;10.90;99.90;;;;;;5008739;28;20265;-70
2023/04/24 11:47:38;;;;;;;6.70;5.03;;;11.00;99.90;;;;;;5021462;28;20167;-71
2023/04/24 11:50:05;;;;;;;6.27;4.40;;;10.70;99.90;;;;;;5026111;28;20553;-69
2023/04/24 11:52:31;;;;;;;7.27;4.67;;;10.70;99.90;;;;;;5021597;28;20190;-70
2023/04/24 11:54:57;;;;;;;7.50;5.00;;;10.70;99.90;;;;;;5025863;28;20174;-68
2023/04/24 11:57:27;;;;;;;7.27;5.10;;;10.70;99.90;;;;;;5023329;28;20178;-69
2023/04/24 11:59:53;;;;;;;9.10;4.87;;;10.50;99.90;;;;;;5024973;28;20240;-69
2023/04/24 12:02:26;;;;;;;7.50;4.93;;;10.60;99.90;;;;;;5024171;28;20181;-69
2023/04/24 12:04:54;;;;;;;9.10;5.70;;;10.70;99.90;;;;;;5024488;28;20621;-69
2023/04/24 12:07:20;;;;;;;6.53;4.63;;;10.80;99.90;;;;;;5027275;28;21172;-69
2023/04/24 12:09:48;;;;;;;10.33;4.97;;;10.80;99.90;;;;;;5023041;28;20222;-69
2023/04/24 12:12:15;;;;;;;9.73;4.77;;;10.90;99.90;;;;;;5024970;28;20222;-69
2023/04/24 12:14:56;;;;;;;9.93;5.03;;;11.10;99.90;;;;;;5022690;28;20557;-70
2023/04/24 12:17:32;;;;;;;5.87;3.70;;;10.90;99.90;;;;;;5023977;28;20189;-69
2023/04/24 12:20:02;;;;;;;5.00;3.57;;;11.50;99.90;;;;;;5024678;28;20621;-69
2023/04/24 12:22:43;;;;;;;4.63;3.47;;;10.80;99.90;;;;;;5023294;28;20178;-70
2023/04/24 12:25:11;;;;;;;5.07;3.03;;;10.90;99.90;;;;;;5021036;28;20232;-70
2023/04/24 12:27:37;;;;;;;5.97;3.30;;;10.90;99.90;;;;;;5021956;28;20261;-71
2023/04/24 12:30:05;;;;;;;4.43;3.17;;;11.20;99.90;;;;;;5025080;28;20720;-71
2023/04/24 12:32:31;;;;;;;4.30;3.30;;;11.40;99.90;;;;;;5023087;28;20285;-72
2023/04/24 12:34:57;;;;;;;4.30;2.63;;;11.60;99.90;;;;;;5024027;28;20680;-69
2023/04/24 12:37:25;;;;;;;3.77;2.73;;;11.70;99.90;;;;;;5024843;28;20190;-69
2023/04/24 12:40:02;;;;;;;4.40;3.10;;;11.60;99.90;;;;;;5026989;28;20201;-70
2023/04/24 12:42:29;;;;;;;3.70;3.10;;;12.10;99.90;;;;;;5026202;28;20186;-70
2023/04/24 12:45:00;;;;;;;6.30;3.22;;;13.10;99.90;;;;;;5027852;28;20531;-70
2023/04/24 12:47:27;;;;;;;5.43;3.50;;;12.90;99.90;;;;;;5027769;28;20808;-70
2023/04/24 12:49:53;;;;;;;4.18;3.10;;;13.20;99.90;;;;;;5026972;28;20763;-70